Time;durP1;ratioP1;P1;durP2;ratioP2;P2;SDS_P1;SDS_P2;PMS_P1;PMS_P2;Temp;Humidity;BMP_temperature;BMP_pressure;BME280_temperature;BME280_humidity;BME280_pressure;Samples;Min_cycle;Max_cycle;Signal;HPM_P1;HPM_P2
2023/02/11 00:01:32;;;;;;;39.50;19.85;;;;;;;4.39;65.76;102323.53;10259759;28;20734;-66
2023/02/11 00:06:34;;;;;;;47.20;20.67;;;;;;;4.43;65.48;102331.25;10248768;28;20053;-64
2023/02/11 00:11:36;;;;;;;51.40;22.35;;;;;;;4.39;65.67;102329.72;10263522;28;20093;-68
2023/02/11 00:16:37;;;;;;;44.13;22.90;;;;;;;4.37;65.89;102334.25;10267123;28;20142;-66
2023/02/11 00:21:39;;;;;;;45.28;21.38;;;;;;;4.36;65.98;102325.41;10261055;28;20057;-66
2023/02/11 00:26:40;;;;;;;49.08;22.08;;;;;;;4.36;66.05;102322.75;10262795;28;20138;-65
2023/02/11 00:31:41;;;;;;;43.00;19.90;;;;;;;4.41;66.32;102317.16;10261945;28;20134;-65
2023/02/11 00:36:43;;;;;;;52.30;22.55;;;;;;;4.47;66.05;102311.47;10263014;28;20046;-64
2023/02/11 00:41:44;;;;;;;45.80;21.85;;;;;;;4.46;65.95;102309.75;10256484;28;20059;-65
2023/02/11 00:46:46;;;;;;;47.88;23.73;;;;;;;4.40;66.13;102319.91;10257393;28;20106;-66
2023/02/11 00:51:47;;;;;;;46.50;23.45;;;;;;;4.41;66.09;102317.16;10259719;28;20074;-65
2023/02/11 00:56:49;;;;;;;47.85;23.40;;;;;;;4.47;66.15;102310.63;10258176;28;20428;-64
2023/02/11 01:01:50;;;;;;;55.40;23.95;;;;;;;4.47;66.29;102314.16;10250739;28;20054;-65
2023/02/11 01:06:51;;;;;;;48.90;23.85;;;;;;;4.57;65.95;102314.47;10269301;28;20059;-64
2023/02/11 01:11:53;;;;;;;54.40;22.83;;;;;;;4.58;65.93;102302.88;10263698;28;20047;-65
2023/02/11 01:16:55;;;;;;;44.85;21.80;;;;;;;4.60;65.87;102303.66;10264021;28;20459;-65
2023/02/11 01:21:56;;;;;;;50.42;24.67;;;;;;;4.59;65.99;102303.75;10263156;28;20053;-64
2023/02/11 01:26:58;;;;;;;46.83;22.60;;;;;;;4.67;65.87;102301.50;10265623;28;20129;-65
2023/02/11 01:32:00;;;;;;;52.80;24.25;;;;;;;4.59;66.00;102307.25;10262272;28;20114;-65
2023/02/11 01:37:01;;;;;;;50.55;24.10;;;;;;;4.57;65.88;102298.50;10254331;28;20544;-62
2023/02/11 01:42:03;;;;;;;47.63;23.73;;;;;;;4.54;65.96;102293.34;10260855;28;20066;-64
2023/02/11 01:47:05;;;;;;;50.97;24.25;;;;;;;4.69;65.45;102284.47;10263469;28;20075;-64
2023/02/11 01:52:24;;;;;;;48.25;24.67;;;;;;;4.65;65.51;102277.59;10264808;28;20098;-63
2023/02/11 01:57:29;;;;;;;51.83;25.63;;;;;;;4.55;65.88;102271.09;10253355;28;20114;-64
2023/02/11 02:03:09;;;;;;;50.90;24.52;;;;;;;4.53;65.97;102257.88;10274906;28;20081;-63
2023/02/11 02:08:33;;;;;;;55.08;25.65;;;;;;;4.46;65.69;102258.31;10279773;28;20051;-64
2023/02/11 02:13:34;;;;;;;50.80;24.90;;;;;;;4.39;65.95;102246.31;10278757;28;20063;-63
2023/02/11 02:18:39;;;;;;;61.20;24.92;;;;;;;4.33;66.43;102224.41;10293846;28;20099;-63
2023/02/11 02:24:09;;;;;;;53.20;24.45;;;;;;;4.32;66.39;102236.00;10288986;28;20073;-63
2023/02/11 02:29:20;;;;;;;52.33;25.27;;;;;;;4.28;66.30;102242.44;10283848;28;20043;-64
2023/02/11 02:34:29;;;;;;;57.72;26.83;;;;;;;4.30;66.78;102239.69;10289449;28;20790;-64
2023/02/11 02:39:34;;;;;;;52.95;26.48;;;;;;;4.34;66.75;102241.25;10297063;28;20052;-64
2023/02/11 02:44:35;;;;;;;49.55;23.50;;;;;;;4.39;66.66;102241.84;10286719;28;20051;-65
2023/02/11 02:49:37;;;;;;;61.58;25.55;;;;;;;4.41;66.75;102241.75;10293382;28;20062;-66
2023/02/11 02:54:56;;;;;;;54.47;26.48;;;;;;;4.40;66.88;102234.72;10294864;28;20051;-63
2023/02/11 03:00:35;;;;;;;56.22;26.35;;;;;;;4.39;66.84;102241.84;10291753;28;20039;-65
2023/02/11 03:05:54;;;;;;;57.10;25.05;;;;;;;4.40;66.97;102238.22;10295213;28;20070;-64
2023/02/11 03:10:58;;;;;;;55.05;25.98;;;;;;;4.58;66.60;102230.97;10299320;28;20050;-65
2023/02/11 03:16:18;;;;;;;51.28;25.48;;;;;;;4.73;66.39;102232.72;10292000;28;20031;-64
2023/02/11 03:21:22;;;;;;;51.60;23.88;;;;;;;4.85;66.21;102220.47;10289721;28;20114;-64
2023/02/11 03:26:43;;;;;;;49.72;24.65;;;;;;;4.79;65.99;102198.69;10290634;28;20114;-66
2023/02/11 03:32:03;;;;;;;56.67;26.23;;;;;;;4.57;66.83;102183.97;10292415;28;20071;-66
2023/02/11 03:37:25;;;;;;;60.80;27.77;;;;;;;4.50;66.93;102180.84;10295124;28;20298;-64
2023/02/11 03:42:33;;;;;;;60.20;26.08;;;;;;;4.65;66.49;102159.56;10292201;28;20059;-64
2023/02/11 03:47:37;;;;;;;;;;;;;;;4.57;66.61;102149.34;10288266;28;20059;-65
2023/02/11 03:52:39;;;;;;;53.58;25.45;;;;;;;4.47;67.03;102133.06;10285899;28;19918;-63
2023/02/11 03:57:40;;;;;;;58.90;24.83;;;;;;;4.41;66.86;102138.78;10292146;28;20036;-66
2023/02/11 04:02:42;;;;;;;54.78;27.15;;;;;;;4.42;67.17;102155.59;10291401;28;20054;-66
2023/02/11 04:07:44;;;;;;;50.47;23.35;;;;;;;4.47;67.67;102162.38;10288451;28;20356;-65
2023/02/11 04:12:45;;;;;;;54.70;27.83;;;;;;;4.45;67.51;102177.56;10281368;28;20083;-63
2023/02/11 04:17:47;;;;;;;59.40;26.30;;;;;;;4.48;67.29;102172.09;10283679;28;20046;-64
2023/02/11 04:22:48;;;;;;;59.45;25.58;;;;;;;4.60;66.96;102182.94;10287674;28;20133;-64
2023/02/11 04:27:50;;;;;;;49.88;24.17;;;;;;;4.59;67.24;102182.09;10287460;28;20061;-65
2023/02/11 04:32:53;;;;;;;53.90;25.35;;;;;;;4.58;67.46;102188.34;10288623;28;20117;-63
2023/02/11 04:37:54;;;;;;;59.33;26.63;;;;;;;4.64;67.07;102164.03;10294971;28;20131;-64
2023/02/11 04:42:55;;;;;;;61.10;28.13;;;;;;;4.66;67.04;102150.59;10290789;28;20106;-64
2023/02/11 04:47:57;;;;;;;50.50;24.25;;;;;;;4.59;67.61;102157.25;10291646;28;20039;-63
2023/02/11 04:52:58;;;;;;;50.75;25.08;;;;;;;4.57;67.31;102162.69;10295921;28;20051;-65
2023/02/11 04:57:59;;;;;;;54.65;25.38;;;;;;;4.59;67.41;102151.94;10301885;28;20434;-64
2023/02/11 05:03:01;;;;;;;55.40;25.08;;;;;;;4.59;67.43;102155.44;10288284;28;20054;-65
2023/02/11 05:08:02;;;;;;;54.75;26.52;;;;;;;4.56;67.62;102143.19;10289250;28;20062;-64
2023/02/11 05:13:04;;;;;;;50.97;24.30;;;;;;;4.58;67.58;102124.44;10275262;28;20058;-65
2023/02/11 05:18:05;;;;;;;47.85;24.45;;;;;;;4.55;67.49;102135.28;10280479;28;20419;-63
2023/02/11 05:23:07;;;;;;;50.40;25.42;;;;;;;4.65;67.24;102154.22;10285871;28;20051;-64
2023/02/11 05:28:08;;;;;;;46.85;24.35;;;;;;;4.62;67.14;102165.06;10287531;28;20053;-65
2023/02/11 05:33:10;;;;;;;48.88;23.08;;;;;;;4.65;67.27;102155.06;10267692;28;20046;-64
2023/02/11 05:38:11;;;;;;;51.47;25.25;;;;;;;4.75;66.90;102169.53;10285723;28;20075;-65
2023/02/11 05:43:13;;;;;;;53.75;24.50;;;;;;;4.79;67.14;102177.38;10289234;28;20065;-68
2023/02/11 05:48:15;;;;;;;61.92;28.17;;;;;;;4.94;66.35;102176.44;10281698;28;20050;-65
2023/02/11 05:53:16;;;;;;;55.38;25.38;;;;;;;4.97;66.63;102173.56;10275598;28;20043;-64
2023/02/11 05:58:18;;;;;;;45.78;23.77;;;;;;;4.94;66.88;102160.44;10271791;28;20046;-65
2023/02/11 06:03:19;;;;;;;48.83;24.88;;;;;;;4.82;66.98;102151.41;10268722;28;20051;-68
2023/02/11 06:08:21;;;;;;;46.03;23.15;;;;;;;4.75;67.09;102172.22;10271412;28;20051;-66
2023/02/11 06:13:22;;;;;;;55.33;24.75;;;;;;;4.80;66.79;102190.59;10266512;28;20066;-65
2023/02/11 06:18:24;;;;;;;50.15;23.15;;;;;;;4.69;66.93;102172.59;10264749;28;20058;-62
2023/02/11 06:23:26;;;;;;;51.90;23.40;;;;;;;4.72;67.09;102161.75;10264710;28;20086;-64
2023/02/11 06:28:31;;;;;;;52.08;22.90;;;;;;;4.73;67.32;102143.97;10271902;28;20053;-67
2023/02/11 06:33:33;;;;;;;49.95;23.10;;;;;;;4.69;67.04;102147.75;10276396;28;20051;-63
2023/02/11 06:38:35;;;;;;;53.90;23.80;;;;;;;4.66;66.77;102145.28;10271334;28;20079;-66
2023/02/11 06:43:36;;;;;;;48.20;22.27;;;;;;;4.69;66.82;102147.75;10286179;28;20041;-66
2023/02/11 09:40:34;;;;;;;44.92;20.88;;;;;;;6.78;64.51;102261.63;11211191;23;20075;-64
2023/02/11 09:45:36;;;;;;;43.33;20.48;;;;;;;6.69;64.33;102263.09;10303012;28;20035;-62
2023/02/11 09:50:49;;;;;;;42.25;20.92;;;;;;;6.95;63.89;102251.50;10303921;28;20081;-63
2023/02/11 09:55:58;;;;;;;39.40;20.50;;;;;;;6.94;63.32;102249.75;10309335;28;20111;-63
2023/02/11 10:00:59;;;;;;;48.50;21.92;;;;;;;7.02;64.01;102254.59;10313343;28;20039;-62
2023/02/11 10:06:19;;;;;;;43.03;20.77;;;;;;;7.12;63.47;102258.34;10303704;28;20047;-62
2023/02/11 10:12:22;;;;;;;43.67;20.67;;;;;;;7.25;63.96;102265.53;10312990;28;20063;-63
2023/02/11 10:17:43;;;;;;;43.33;21.42;;;;;;;7.34;63.77;102260.38;10215511;28;20030;-62
2023/02/11 10:22:52;;;;;;;41.33;19.73;;;;;;;7.44;62.74;102260.56;10302691;28;20042;-62
2023/02/11 10:27:58;;;;;;;37.30;18.23;;;;;;;7.38;63.27;102254.81;10314649;28;20197;-62
2023/02/11 10:33:04;;;;;;;36.72;17.90;;;;;;;7.12;63.63;102268.19;10309286;28;20050;-61
2023/02/11 10:38:07;;;;;;;37.15;19.05;;;;;;;7.23;63.80;102275.47;10311159;28;20047;-62
2023/02/11 10:43:13;;;;;;;38.70;19.98;;;;;;;7.22;63.65;102274.59;10310348;28;20178;-62
2023/02/11 10:48:38;;;;;;;43.15;20.70;;;;;;;7.13;64.03;102270.75;10311533;28;20035;-62
2023/02/11 10:53:40;;;;;;;39.13;21.75;;;;;;;7.18;63.44;102266.91;10313490;28;20114;-63
2023/02/11 10:58:54;;;;;;;38.38;20.17;;;;;;;7.31;63.98;102257.91;10311083;28;20045;-62
2023/02/11 11:03:58;;;;;;;38.35;20.95;;;;;;;7.31;63.51;102241.88;10309763;28;20074;-62
2023/02/11 11:09:00;;;;;;;39.17;20.20;;;;;;;7.59;62.96;102234.56;10309583;28;20078;-62
2023/02/11 11:14:03;;;;;;;34.05;19.08;;;;;;;7.73;63.18;102228.22;10311042;28;20042;-63
2023/02/11 11:19:07;;;;;;;38.08;19.58;;;;;;;7.93;62.74;102238.31;10310687;28;20058;-63
2023/02/11 11:24:30;;;;;;;47.40;21.25;;;;;;;8.02;62.52;102236.81;10308112;28;20058;-61
2023/02/11 11:29:35;;;;;;;38.53;18.77;;;;;;;8.14;62.17;102238.56;10300699;28;20050;-62
2023/02/11 11:34:40;;;;;;;42.63;18.25;;;;;;;8.32;62.49;102243.53;10303441;28;20034;-62
2023/02/11 11:39:51;;;;;;;38.10;18.27;;;;;;;8.44;61.99;102250.69;10311587;28;20050;-62
2023/02/11 11:44:57;;;;;;;35.78;19.17;;;;;;;8.40;62.45;102240.28;10802790;23;20059;-62
2023/02/11 11:50:44;;;;;;;38.55;19.02;;;;;;;8.52;62.22;102226.00;10306608;28;20030;-62
2023/02/11 11:55:58;;;;;;;45.33;20.00;;;;;;;8.61;62.04;102229.78;10305728;28;20047;-62
2023/02/11 12:01:11;;;;;;;38.08;19.30;;;;;;;8.82;61.64;102230.81;10314197;28;20041;-64
2023/02/11 12:06:38;;;;;;;36.88;18.77;;;;;;;8.88;61.92;102222.31;10315308;28;20031;-63
2023/02/11 12:12:03;;;;;;;40.38;19.33;;;;;;;8.86;62.36;102207.31;10292538;28;20043;-64
2023/02/11 12:17:25;;;;;;;42.25;18.88;;;;;;;8.95;62.43;102195.88;10314633;28;20043;-64
2023/02/11 12:22:44;;;;;;;36.65;17.48;;;;;;;8.93;62.16;102206.72;10309779;28;20050;-64
2023/02/11 12:27:52;;;;;;;33.05;16.50;;;;;;;9.08;62.25;102214.53;10291565;28;20043;-63
2023/02/11 12:33:16;;;;;;;34.80;18.27;;;;;;;8.96;62.75;102224.41;10307979;28;20042;-63
2023/02/11 12:38:42;;;;;;;33.33;15.60;;;;;;;9.00;62.19;102215.13;10305391;28;20078;-63
2023/02/11 12:43:44;;;;;;;38.38;18.83;;;;;;;8.90;62.29;102217.69;10271973;28;20050;-63
2023/02/11 12:49:10;;;;;;;34.58;17.38;;;;;;;8.99;62.48;102212.59;10268875;28;20063;-64
2023/02/11 12:54:19;;;;;;;35.63;17.20;;;;;;;9.06;62.65;102201.28;10248875;28;20107;-65
2023/02/11 12:59:33;;;;;;;41.17;18.23;;;;;;;8.93;62.68;102200.50;10246283;28;20074;-65
2023/02/11 13:04:43;;;;;;;39.60;17.77;;;;;;;9.02;62.45;102205.13;10249106;28;20044;-64
2023/02/11 13:09:53;;;;;;;37.55;17.60;;;;;;;9.13;62.56;102207.00;10251592;28;20039;-64
2023/02/11 13:15:00;;;;;;;34.63;17.40;;;;;;;9.26;62.74;102186.28;10240253;28;20077;-64
2023/02/11 13:20:17;;;;;;;34.27;17.23;;;;;;;9.27;62.55;102177.22;10250780;28;20058;-64
2023/02/11 13:25:31;;;;;;;35.22;17.02;;;;;;;9.41;62.49;102184.19;10253108;28;20031;-64
2023/02/11 13:30:34;;;;;;;29.40;16.77;;;;;;;9.55;62.22;102176.84;10254573;28;20117;-64
2023/02/11 13:35:39;;;;;;;38.03;18.60;;;;;;;9.52;62.37;102165.38;10267075;28;20051;-64
2023/02/11 13:40:40;;;;;;;28.80;14.95;;;;;;;9.50;62.48;102164.66;10266373;28;20074;-62
2023/02/11 13:45:47;;;;;;;34.22;14.82;;;;;;;9.54;62.64;102170.63;10266790;28;20135;-62
2023/02/11 13:50:50;;;;;;;34.80;16.10;;;;;;;9.55;62.56;102174.16;10264283;28;20035;-64
2023/02/11 13:56:06;;;;;;;28.08;15.00;;;;;;;9.50;63.11;102171.88;10276925;28;20053;-64
2023/02/11 14:01:08;;;;;;;28.30;14.52;;;;;;;9.54;62.85;102159.91;10271164;28;20075;-63
2023/02/11 14:11:32;;;;;;;28.98;16.00;;;;;;;9.69;62.56;102161.31;10275680;28;20039;-62
2023/02/11 14:16:34;;;;;;;27.80;13.75;;;;;;;9.81;62.67;102170.19;10266496;28;20035;-62
2023/02/11 14:21:41;;;;;;;23.73;12.55;;;;;;;9.78;62.88;102177.69;10271380;28;20047;-63
2023/02/11 14:26:51;;;;;;;25.90;13.25;;;;;;;9.60;63.40;102178.19;10270367;28;20047;-62
2023/02/11 14:32:36;;;;;;;26.63;14.48;;;;;;;9.51;63.29;102186.97;10220887;28;20059;-64
2023/02/11 14:37:56;;;;;;;25.52;13.40;;;;;;;9.71;63.41;102188.06;10220072;28;20066;-65
2023/02/11 14:43:10;;;;;;;25.05;13.10;;;;;;;9.73;63.14;102191.47;10221529;28;20071;-66
2023/02/11 14:48:15;;;;;;;26.05;14.13;;;;;;;9.86;62.85;102202.91;10225259;28;20059;-65
2023/02/11 14:53:20;;;;;;;28.45;13.82;;;;;;;9.95;62.75;102193.25;10217117;28;20110;-65
2023/02/11 14:58:24;;;;;;;22.77;12.70;;;;;;;9.90;63.14;102204.38;10210520;28;20789;-65
2023/02/11 15:03:55;;;;;;;22.23;12.52;;;;;;;9.88;63.09;102195.59;10210687;28;20062;-68
2023/02/11 15:09:01;;;;;;;23.58;12.45;;;;;;;10.01;62.85;102200.81;10217145;28;20059;-65
2023/02/11 15:14:10;;;;;;;23.63;11.63;;;;;;;10.05;62.82;102196.03;10218428;28;20048;-67
2023/02/11 15:19:27;;;;;;;24.70;12.50;;;;;;;9.83;63.53;102216.59;10220839;28;20047;-64
2023/02/11 15:24:30;;;;;;;21.70;12.07;;;;;;;9.78;63.56;102216.13;10216620;28;20142;-66
2023/02/11 15:29:37;;;;;;;22.17;11.75;;;;;;;9.84;63.55;102220.16;10216519;28;20043;-64
2023/02/11 15:34:39;;;;;;;21.85;11.57;;;;;;;9.84;63.46;102226.38;10213715;28;20056;-65
2023/02/11 15:39:41;;;;;;;19.42;11.57;;;;;;;9.86;63.49;102231.63;10212417;28;20078;-64
2023/02/11 15:44:43;;;;;;;19.27;11.25;;;;;;;9.72;63.95;102233.59;10207718;28;20070;-63
2023/02/11 15:49:46;;;;;;;21.23;11.23;;;;;;;9.65;64.32;102234.19;10215213;28;20138;-64
2023/02/11 15:54:48;;;;;;;19.13;9.23;;;;;;;9.61;64.26;102249.69;10209716;28;20452;-65
2023/02/11 15:59:53;;;;;;;19.02;11.13;;;;;;;9.67;64.50;102227.72;10218073;28;20043;-67
2023/02/11 16:05:24;;;;;;;20.08;10.27;;;;;;;9.57;64.62;102237.50;10205476;28;20075;-65
2023/02/11 16:10:34;;;;;;;17.98;10.23;;;;;;;9.61;64.29;102241.63;10211579;28;20055;-64
2023/02/11 16:16:03;;;;;;;17.17;9.90;;;;;;;9.55;65.14;102247.50;10218223;28;20051;-63
2023/02/11 16:21:14;;;;;;;18.13;10.70;;;;;;;9.62;64.73;102235.31;10218406;28;20086;-64
2023/02/11 16:26:25;;;;;;;18.05;10.30;;;;;;;9.60;64.72;102241.78;10223339;28;20814;-64
2023/02/11 16:31:39;;;;;;;20.05;10.57;;;;;;;9.57;64.86;102250.91;10226836;28;20058;-64
2023/02/11 16:41:58;;;;;;;18.45;10.05;;;;;;;9.75;64.33;102261.16;10370686;23;20082;-61
2023/02/11 16:47:02;;;;;;;18.02;8.88;;;;;;;9.68;64.66;102260.81;10226945;28;20080;-61
2023/02/11 16:52:14;;;;;;;18.20;10.60;;;;;;;9.62;64.60;102259.47;10244249;29;20172;-63
2023/02/11 16:57:24;;;;;;;17.70;9.45;;;;;;;9.51;65.17;102267.53;10249827;29;20071;-61
2023/02/11 17:02:33;;;;;;;18.27;9.45;;;;;;;9.51;64.87;102263.00;10244677;28;20146;-61
2023/02/11 17:07:34;;;;;;;18.75;9.20;;;;;;;9.48;65.59;102270.47;10236809;29;20106;-62
2023/02/11 17:12:35;;;;;;;18.42;9.45;;;;;;;9.44;65.14;102272.53;10237912;28;20106;-63
2023/02/11 17:17:37;;;;;;;20.23;11.00;;;;;;;9.51;65.03;102279.09;10220496;28;20533;-59
2023/02/11 17:22:39;;;;;;;16.42;9.75;;;;;;;9.51;64.85;102278.25;10225702;28;20071;-59
2023/02/11 17:27:40;;;;;;;19.55;10.30;;;;;;;9.45;65.10;102292.16;10210878;28;20395;-58
2023/02/11 17:32:42;;;;;;;18.65;10.15;;;;;;;9.51;65.24;102292.53;10209921;28;20457;-59
2023/02/11 17:37:43;;;;;;;17.08;9.32;;;;;;;9.52;65.15;102298.78;10222983;28;20059;-58
2023/02/11 17:42:44;;;;;;;22.27;9.80;;;;;;;9.57;64.90;102301.09;10202001;29;20138;-62
2023/02/11 17:47:48;;;;;;;16.08;9.82;;;;;;;9.70;64.50;102308.03;10224273;28;20071;-59
2023/02/11 17:52:49;;;;;;;18.48;10.10;;;;;;;9.71;64.30;102309.75;10228268;28;20067;-58
2023/02/11 17:57:50;;;;;;;18.73;9.48;;;;;;;9.72;64.51;102314.16;10224534;29;20127;-61
2023/02/11 18:02:52;;;;;;;22.30;11.25;;;;;;;9.75;64.43;102312.19;10227624;28;20114;-59
2023/02/11 18:07:55;;;;;;;19.50;11.18;;;;;;;9.79;64.32;102317.19;10230857;28;20067;-58
2023/02/11 18:12:57;;;;;;;21.52;10.65;;;;;;;9.79;64.41;102302.91;10229558;28;20043;-62
2023/02/11 18:17:58;;;;;;;23.70;11.18;;;;;;;9.70;64.58;102308.03;10228545;28;20074;-57
2023/02/11 18:22:59;;;;;;;25.27;12.77;;;;;;;9.70;64.49;102313.41;10229078;29;20080;-59
2023/02/11 18:28:01;;;;;;;28.27;15.18;;;;;;;9.63;64.49;102304.13;10221167;29;20597;-60
2023/02/11 18:33:07;;;;;;;26.55;14.38;;;;;;;9.72;64.26;102306.09;10217077;28;20062;-59
2023/02/11 18:38:09;;;;;;;24.98;14.65;;;;;;;9.75;64.12;102309.50;10223141;28;20047;-58
2023/02/11 18:43:10;;;;;;;25.50;14.27;;;;;;;9.83;63.71;102307.06;10218794;29;20533;-59
2023/02/11 18:48:12;;;;;;;32.22;14.88;;;;;;;9.83;63.71;102312.44;10203648;28;20079;-59
2023/02/11 18:53:14;;;;;;;27.75;14.98;;;;;;;9.85;63.68;102313.16;10219988;28;20076;-60
2023/02/11 18:58:16;;;;;;;27.10;14.45;;;;;;;9.80;63.58;102313.53;10222964;29;20066;-60
2023/02/11 19:03:18;;;;;;;24.48;13.73;;;;;;;9.84;63.43;102319.53;10221819;29;20090;-60
2023/02/11 19:08:19;;;;;;;27.98;15.55;;;;;;;9.85;63.51;102326.59;10217939;28;20051;-62
2023/02/11 19:13:20;;;;;;;26.45;14.57;;;;;;;9.90;63.38;102335.16;10216265;28;20130;-62
2023/02/11 19:18:22;;;;;;;28.63;14.82;;;;;;;9.90;63.37;102346.75;10219169;28;20047;-60
2023/02/11 19:23:23;;;;;;;26.55;14.93;;;;;;;9.92;63.12;102357.38;10228627;28;20055;-60
2023/02/11 19:28:25;;;;;;;33.35;15.95;;;;;;;9.90;63.16;102349.44;10203881;28;20912;-58
2023/02/11 19:33:26;;;;;;;29.45;15.43;;;;;;;9.84;63.23;102355.28;10220778;28;20059;-59
2023/02/11 19:38:28;;;;;;;26.63;15.15;;;;;;;9.85;63.40;102369.56;10224774;28;20082;-58
2023/02/11 19:43:29;;;;;;;31.52;16.88;;;;;;;9.78;63.43;102360.31;10226748;28;20714;-58
2023/02/11 19:48:31;;;;;;;32.83;17.05;;;;;;;9.52;64.52;102355.16;10221520;28;20146;-60
2023/02/11 19:53:32;;;;;;;31.63;18.55;;;;;;;9.61;63.94;102357.09;10199970;28;20059;-59
2023/02/11 19:58:35;;;;;;;29.27;16.48;;;;;;;9.64;63.56;102356.88;10223234;28;20055;-59
2023/02/11 20:03:37;;;;;;;38.28;18.02;;;;;;;9.72;63.76;102365.16;10217773;28;20052;-61
2023/02/11 20:08:42;;;;;;;33.65;17.58;;;;;;;9.73;63.48;102368.72;10206557;28;20173;-58
2023/02/11 20:13:44;;;;;;;32.47;17.30;;;;;;;9.74;63.31;102362.38;10217607;28;20043;-58
2023/02/11 20:18:47;;;;;;;34.83;18.70;;;;;;;9.70;63.49;102358.22;10235798;28;20086;-60
2023/02/11 20:23:52;;;;;;;30.58;18.00;;;;;;;9.64;63.49;102364.94;10215257;28;20039;-60
2023/02/11 20:28:54;;;;;;;35.10;18.48;;;;;;;9.65;63.47;102357.72;10225867;28;20072;-61
2023/02/11 20:33:56;;;;;;;33.33;17.77;;;;;;;9.62;63.61;102366.88;10215615;28;20399;-59
2023/02/11 20:38:59;;;;;;;32.40;16.67;;;;;;;9.56;63.68;102348.56;10205456;29;20150;-58
2023/02/11 20:49:21;;;;;;;33.17;17.33;;;;;;;9.49;63.59;102345.47;10487955;23;19950;-60
2023/02/11 20:54:23;;;;;;;32.35;17.83;;;;;;;9.32;64.20;102352.19;10170991;29;20065;-59
2023/02/11 20:59:25;;;;;;;35.17;18.17;;;;;;;9.42;64.01;102355.00;10175438;29;20072;-59
2023/02/11 21:04:29;;;;;;;33.05;18.58;;;;;;;9.35;64.44;102355.59;10175288;29;20104;-59
2023/02/11 21:09:32;;;;;;;36.75;18.55;;;;;;;9.28;64.96;102358.75;10179886;29;20056;-59
2023/02/11 21:14:33;;;;;;;36.60;19.08;;;;;;;9.45;64.15;102368.19;10180539;29;20048;-58
2023/02/11 21:19:34;;;;;;;33.90;17.45;;;;;;;9.52;64.50;102373.94;10184978;29;20059;-62
2023/02/11 21:24:36;;;;;;;33.85;19.10;;;;;;;9.57;63.84;102385.16;10190400;29;20400;-59
2023/02/11 21:29:38;;;;;;;40.45;19.50;;;;;;;9.59;64.10;102399.31;10182871;29;20434;-58
2023/02/11 21:34:54;;;;;;;37.70;19.45;;;;;;;9.64;64.23;102396.31;10191271;29;20494;-59
2023/02/11 21:39:55;;;;;;;38.55;20.17;;;;;;;9.61;64.18;102394.69;10189164;29;20047;-60
2023/02/11 21:44:56;;;;;;;36.80;19.95;;;;;;;9.58;64.36;102403.00;10187849;29;20063;-59
2023/02/11 21:49:58;;;;;;;34.38;17.83;;;;;;;9.58;64.19;102423.59;10191431;29;20991;-61
2023/02/11 21:54:59;;;;;;;32.00;16.60;;;;;;;9.54;63.95;102428.38;10189297;29;20630;-60
2023/02/11 22:00:01;;;;;;;33.00;17.90;;;;;;;9.49;64.08;102419.81;10192568;29;20048;-60
2023/02/11 22:05:03;;;;;;;36.92;18.42;;;;;;;9.49;64.12;102425.16;10181104;29;20055;-60
2023/02/11 22:10:06;;;;;;;36.90;20.65;;;;;;;9.43;64.29;102418.44;10184789;29;20051;-60
2023/02/11 22:15:08;;;;;;;35.35;18.38;;;;;;;9.40;64.49;102418.69;10187429;29;20063;-60
2023/02/11 22:20:10;;;;;;;35.55;18.70;;;;;;;9.29;64.73;102405.22;10185045;29;20456;-63
2023/02/11 22:25:12;;;;;;;34.83;18.45;;;;;;;9.19;64.93;102402.38;10181588;29;20068;-59
2023/02/11 22:30:13;;;;;;;34.13;18.38;;;;;;;9.26;65.01;102400.09;10174461;29;20066;-59
2023/02/11 22:35:15;;;;;;;36.15;18.75;;;;;;;9.30;64.76;102399.75;10182468;29;20566;-58
2023/02/11 22:40:16;;;;;;;36.22;18.13;;;;;;;9.28;64.51;102407.06;10186422;29;20541;-58
2023/02/11 22:45:17;;;;;;;32.22;17.95;;;;;;;9.32;64.70;102408.53;10179019;29;20537;-61
2023/02/11 22:50:19;;;;;;;32.78;16.88;;;;;;;9.33;64.69;102406.69;10187557;29;20060;-59
2023/02/11 22:55:20;;;;;;;32.88;17.67;;;;;;;9.32;64.92;102415.72;10167654;29;20052;-60
2023/02/11 23:00:24;;;;;;;31.92;17.00;;;;;;;9.33;64.79;102412.06;10182733;29;20103;-59
2023/02/11 23:05:26;;;;;;;35.58;17.80;;;;;;;9.33;64.80;102428.16;10180007;29;20071;-61
2023/02/11 23:10:27;;;;;;;30.33;16.25;;;;;;;9.31;64.91;102432.81;10179138;29;20151;-58
2023/02/11 23:15:29;;;;;;;36.22;18.10;;;;;;;9.32;64.75;102418.41;10179809;29;20117;-59
2023/02/11 23:20:34;;;;;;;32.70;18.05;;;;;;;9.37;64.81;102434.16;10180330;29;20063;-61
2023/02/11 23:25:42;;;;;;;36.78;19.92;;;;;;;9.36;64.63;102437.81;10180619;29;20074;-59
2023/02/11 23:30:43;;;;;;;41.03;19.83;;;;;;;9.34;65.26;102451.38;10179547;29;20079;-59
2023/02/11 23:35:44;;;;;;;37.53;20.52;;;;;;;9.30;65.25;102453.44;10178233;29;20115;-60
2023/02/11 23:40:46;;;;;;;37.50;20.45;;;;;;;9.28;65.17;102441.94;10174519;29;20060;-58
2023/02/11 23:45:47;;;;;;;37.58;20.30;;;;;;;9.29;65.30;102440.97;10179918;29;20111;-58
2023/02/11 23:50:49;;;;;;;37.55;19.30;;;;;;;9.29;65.22;102443.66;10185642;29;20055;-60
2023/02/11 23:55:50;;;;;;;37.08;18.45;;;;;;;9.32;65.17;102435.38;10180928;29;20056;-59
